Standale, Michigan
Current Conditions -  °F | °C
As of 6:53 PM on Sunday 23 Nov 2014 (Local Time) from KGRR Reporting Station
Moderate Rain Moderate Rain  
Wind Chill: 50°   Ceiling: 1400
Heat Index: 50°   Visibility: 2.5mi
Dew Point: 48°   Wind: 10mph
Humidity: 93%   Direction: 120°ESE
Pressure: 29.49"   Gusts: NA
Location:  42.9769°N, 85.7689°W
Report Text: KGRR 232353Z 12009KT 2 1/2SM RA BR SCT007 BKN014 OVC035 10/09 A2949 RMK AO2 SLP988 P0019 60037 T01000089 10111 20094 58032
Loading
Personal Weather Stations






























Interactive Weather Map New forecast layout! Learn more

10-Day Weather Forecast

Advertisements
Track Severe Weather on mobile